createdAt,value
2019-04-11T00:00:45.855Z,58.39
2019-04-11T00:03:17.432Z,58.01
2019-04-11T00:05:47.855Z,58.19
2019-04-11T00:08:19.585Z,57.60
2019-04-11T00:10:50.182Z,57.74
2019-04-11T00:13:24.369Z,58.11
2019-04-11T00:15:52.974Z,58.66
2019-04-11T00:18:23.502Z,58.44
2019-04-11T00:20:53.903Z,58.04
2019-04-11T00:23:24.242Z,58.49
2019-04-11T00:25:55.829Z,58.63
2019-04-11T00:28:27.765Z,57.75
2019-04-11T00:30:58.795Z,57.74
2019-04-11T00:33:29.943Z,58.03
2019-04-11T00:36:02.511Z,58.14
2019-04-11T00:38:34.005Z,58.30
2019-04-11T00:41:04.776Z,57.95
2019-04-11T00:43:40.351Z,58.18
2019-04-11T00:46:09.929Z,58.45
2019-04-11T00:48:40.387Z,58.74
2019-04-11T00:51:11.838Z,58.35
2019-04-11T00:53:42.415Z,58.78
2019-04-11T00:56:13.176Z,58.54
2019-04-11T00:58:43.973Z,58.36
2019-04-11T01:01:15.572Z,58.91
2019-04-11T01:03:46.062Z,59.16
2019-04-11T01:06:16.454Z,58.72
2019-04-11T01:08:46.786Z,58.44
2019-04-11T01:11:17.070Z,58.29
2019-04-11T01:13:51.819Z,58.31
2019-04-11T01:16:41.272Z,58.01
2019-04-11T01:19:12.112Z,58.82
2019-04-11T01:21:42.827Z,58.71
2019-04-11T01:24:13.194Z,58.58
2019-04-11T01:26:43.625Z,58.59
2019-04-11T01:29:15.462Z,58.64
2019-04-11T01:31:49.540Z,58.86
2019-04-11T01:34:22.712Z,58.74
2019-04-11T01:36:53.413Z,58.78
2019-04-11T01:39:35.060Z,58.93
2019-04-11T01:42:06.907Z,59.14
2019-04-11T01:44:37.262Z,59.14
2019-04-11T01:47:10.773Z,58.88
2019-04-11T01:49:41.276Z,59.39
2019-04-11T01:52:11.962Z,59.67
2019-04-11T01:54:42.108Z,59.66
2019-04-11T01:57:13.870Z,59.77
2019-04-11T01:59:44.246Z,60.09
2019-04-11T02:02:42.540Z,59.79
2019-04-11T02:05:32.716Z,59.98
2019-04-11T02:08:03.489Z,60.21
2019-04-11T02:10:34.904Z,60.24
2019-04-11T02:13:05.897Z,60.89
2019-04-11T02:15:36.633Z,61.09
2019-04-11T02:18:07.588Z,60.84
2019-04-11T02:20:38.977Z,60.79
2019-04-11T02:23:32.415Z,61.37
2019-04-11T02:26:09.922Z,61.21
2019-04-11T02:28:42.562Z,61.36
2019-04-11T02:31:20.459Z,61.66
2019-04-11T02:33:51.349Z,61.29
2019-04-11T02:36:22.460Z,61.80
2019-04-11T02:38:55.326Z,61.71
2019-04-11T02:41:25.431Z,61.83
2019-04-11T02:43:57.474Z,62.43
2019-04-11T02:46:35.587Z,62.07
2019-04-11T02:49:01.517Z,61.95
2019-04-11T02:51:34.349Z,61.78
2019-04-11T02:54:06.637Z,62.19
2019-04-11T02:56:37.891Z,62.22
2019-04-11T02:59:09.051Z,62.07
2019-04-11T03:01:40.085Z,62.53
2019-04-11T03:04:10.732Z,62.83
2019-04-11T03:06:41.791Z,62.62
2019-04-11T03:09:13.291Z,62.64
2019-04-11T03:11:45.123Z,62.18
2019-04-11T03:14:16.920Z,62.90
2019-04-11T03:16:57.459Z,63.01
2019-04-11T03:19:35.694Z,63.13
2019-04-11T03:21:52.752Z,63.71
2019-04-11T03:24:26.491Z,63.70
2019-04-11T03:27:00.350Z,63.50
2019-04-11T03:29:31.487Z,63.75
2019-04-11T03:32:52.090Z,63.91
2019-04-11T03:35:37.835Z,64.04
2019-04-11T03:37:38.645Z,64.32
2019-04-11T03:39:59.235Z,64.19
2019-04-11T03:42:28.533Z,64.53
2019-04-11T03:44:54.889Z,65.05
2019-04-11T03:47:34.186Z,64.59
2019-04-11T03:49:58.778Z,64.65
2019-04-11T03:52:24.253Z,64.87
2019-04-11T03:54:56.858Z,64.44
2019-04-11T03:57:29.892Z,64.62
2019-04-11T04:00:01.718Z,64.86
2019-04-11T04:02:34.694Z,64.85
2019-04-11T04:05:06.724Z,64.78
2019-04-11T04:07:38.240Z,64.86
2019-04-11T04:10:13.094Z,64.86
2019-04-11T04:12:43.098Z,64.17
2019-04-11T04:15:44.320Z,64.16
2019-04-11T04:18:23.870Z,64.10
2019-04-11T04:21:18.099Z,64.19
2019-04-11T04:23:51.870Z,64.56
2019-04-11T04:26:22.969Z,65.10
2019-04-11T04:28:53.628Z,64.86
2019-04-11T04:31:24.445Z,64.34
2019-04-11T04:33:55.539Z,64.85
2019-04-11T04:36:27.324Z,64.87
2019-04-11T04:38:59.284Z,63.63
2019-04-11T04:41:42.991Z,63.97
2019-04-11T04:44:06.481Z,64.51
2019-04-11T04:46:54.779Z,64.35
2019-04-11T04:49:11.010Z,64.33
2019-04-11T04:51:41.619Z,64.36
2019-04-11T04:54:14.196Z,63.87
2019-04-11T04:56:45.995Z,64.37
2019-04-11T04:59:16.737Z,63.77
2019-04-11T05:01:59.362Z,63.70
2019-04-11T05:04:29.715Z,63.58
2019-04-11T05:07:01.099Z,63.50
2019-04-11T05:09:32.020Z,63.32
2019-04-11T05:12:03.412Z,63.40
2019-04-11T05:14:35.069Z,63.40
2019-04-11T05:17:06.721Z,63.01
2019-04-11T05:19:40.445Z,62.80
2019-04-11T05:22:10.569Z,62.54
2019-04-11T05:24:41.087Z,62.29
2019-04-11T05:27:12.567Z,61.32
2019-04-11T05:29:43.895Z,60.53
2019-04-11T05:32:15.511Z,60.52
2019-04-11T05:34:45.874Z,60.38
2019-04-11T05:37:16.868Z,59.50
2019-04-11T05:39:48.244Z,59.46
2019-04-11T05:42:19.977Z,58.53
2019-04-11T05:44:51.512Z,58.80
2019-04-11T05:47:21.882Z,58.40
2019-04-11T05:50:09.686Z,58.04
2019-04-11T05:52:37.836Z,57.70
2019-04-11T05:55:11.900Z,57.20
2019-04-11T05:57:44.775Z,56.96
2019-04-11T06:00:23.513Z,56.89
2019-04-11T06:03:01.762Z,56.37
2019-04-11T06:05:59.846Z,55.96
2019-04-11T06:08:30.750Z,55.68
2019-04-11T06:11:20.856Z,55.10
2019-04-11T06:14:07.395Z,54.79
2019-04-11T06:16:45.682Z,54.47
2019-04-11T06:19:30.627Z,53.65
2019-04-11T06:22:06.673Z,53.52
2019-04-11T06:25:06.706Z,53.16
2019-04-11T06:27:53.685Z,52.78
2019-04-11T06:30:48.718Z,52.55
2019-04-11T06:33:32.185Z,52.36
2019-04-11T06:36:21.600Z,52.15
2019-04-11T06:39:02.968Z,52.33
2019-04-11T06:41:57.040Z,51.38
2019-04-11T06:44:46.220Z,51.28
2019-04-11T06:47:34.700Z,50.93
2019-04-11T06:50:19.537Z,50.88
2019-04-11T06:52:50.899Z,50.61
2019-04-11T06:55:30.904Z,50.58
2019-04-11T06:58:06.769Z,50.64
2019-04-11T07:00:39.105Z,49.77
2019-04-11T07:03:19.798Z,48.66
2019-04-11T07:05:42.640Z,49.07
2019-04-11T07:08:13.818Z,48.22
2019-04-11T07:10:49.483Z,48.31
2019-04-11T07:13:41.814Z,47.85
2019-04-11T07:16:13.331Z,48.02
2019-04-11T07:19:15.578Z,48.11
2019-04-11T07:21:46.163Z,46.86
2019-04-11T07:24:25.406Z,47.05
2019-04-11T07:27:01.205Z,46.29
2019-04-11T07:29:51.577Z,47.25
2019-04-11T07:32:25.721Z,46.55
2019-04-11T07:35:13.325Z,45.95
2019-04-11T07:37:49.344Z,46.22
2019-04-11T07:40:39.551Z,46.86
2019-04-11T07:43:13.921Z,45.25
2019-04-11T07:46:15.614Z,43.67
2019-04-11T07:48:46.920Z,45.09
2019-04-11T07:51:27.998Z,45.14
2019-04-11T07:54:00.310Z,45.01
2019-04-11T07:56:46.353Z,45.34
2019-04-11T07:59:33.916Z,44.39
2019-04-11T08:02:33.350Z,43.77
2019-04-11T08:05:21.596Z,42.29
2019-04-11T08:08:30.139Z,41.96
2019-04-11T08:11:14.173Z,42.13
2019-04-11T08:14:06.476Z,40.37
2019-04-11T08:17:04.612Z,40.07
2019-04-11T08:19:59.859Z,40.41
2019-04-11T08:22:35.179Z,38.43
2019-04-11T08:25:24.947Z,37.00
2019-04-11T08:28:04.114Z,36.85
2019-04-11T08:30:39.954Z,36.47
2019-04-11T08:33:10.822Z,36.77
2019-04-11T08:35:59.977Z,36.74
2019-04-11T08:38:32.691Z,36.49
2019-04-11T08:41:33.872Z,37.27
2019-04-11T08:44:19.508Z,35.63
2019-04-11T08:46:55.780Z,35.77
2019-04-11T08:49:35.257Z,36.26
2019-04-11T08:52:14.343Z,36.71
2019-04-11T08:55:10.392Z,36.11
2019-04-11T08:57:44.515Z,35.50
2019-04-11T09:00:55.785Z,35.18
2019-04-11T09:03:45.230Z,35.56
2019-04-11T09:06:21.198Z,34.52
2019-04-11T09:09:20.926Z,33.72
2019-04-11T09:11:54.173Z,34.65
2019-04-11T09:14:46.518Z,34.98
2019-04-11T09:17:30.318Z,35.32
2019-04-11T09:20:25.121Z,34.70
2019-04-11T09:23:13.418Z,35.30
2019-04-11T09:26:01.807Z,35.04
2019-04-11T09:28:51.654Z,35.35
2019-04-11T09:31:41.917Z,34.88
2019-04-11T09:34:41.818Z,35.34
2019-04-11T09:37:33.811Z,35.85
2019-04-11T09:40:24.473Z,34.87
2019-04-11T09:43:15.815Z,33.10
2019-04-11T09:46:24.101Z,33.06
2019-04-11T09:49:16.940Z,32.95
2019-04-11T09:52:08.796Z,31.40
2019-04-11T09:54:56.796Z,31.86
2019-04-11T09:57:46.213Z,31.68
2019-04-11T10:00:41.508Z,32.64
2019-04-11T10:03:19.700Z,32.27
2019-04-11T10:06:02.956Z,31.73
2019-04-11T10:08:49.152Z,32.01
2019-04-11T10:11:54.562Z,29.81
2019-04-11T10:14:27.446Z,31.89
2019-04-11T10:17:26.853Z,31.75
2019-04-11T10:20:04.509Z,31.42
2019-04-11T10:22:49.055Z,31.87
2019-04-11T10:25:39.377Z,31.22
2019-04-11T10:28:29.496Z,32.50
2019-04-11T10:31:12.483Z,32.30
2019-04-11T10:33:53.735Z,31.01
2019-04-11T10:36:49.589Z,31.75
2019-04-11T10:39:54.560Z,30.91
2019-04-11T10:42:26.772Z,32.91
2019-04-11T10:45:26.723Z,31.52
2019-04-11T10:47:58.801Z,30.71
2019-04-11T10:50:46.997Z,30.38
2019-04-11T10:53:17.969Z,29.66
2019-04-11T10:56:10.684Z,31.51
2019-04-11T10:59:07.023Z,32.61
2019-04-11T11:01:55.996Z,32.66
2019-04-11T11:04:38.882Z,34.50
2019-04-11T11:07:24.628Z,35.93
2019-04-11T11:10:12.419Z,34.47
2019-04-11T11:13:13.942Z,33.42
2019-04-11T11:15:56.164Z,33.86
2019-04-11T11:19:15.631Z,34.82
2019-04-11T11:21:29.410Z,35.43
2019-04-11T11:24:19.872Z,33.65
2019-04-11T11:26:53.556Z,33.53
2019-04-11T11:29:45.411Z,33.40
2019-04-11T11:32:34.010Z,35.81
2019-04-11T11:35:22.456Z,35.38
2019-04-11T11:38:01.823Z,35.08
2019-04-11T11:41:03.903Z,34.02
2019-04-11T11:43:35.492Z,35.79
2019-04-11T11:46:36.789Z,34.17
2019-04-11T11:49:23.507Z,35.32
2019-04-11T11:52:08.987Z,36.47
2019-04-11T11:54:48.052Z,34.32
2019-04-11T11:57:30.822Z,34.37
2019-04-11T12:00:23.685Z,33.52
2019-04-11T12:03:01.865Z,33.64
2019-04-11T12:05:38.878Z,34.43
2019-04-11T12:08:30.820Z,35.10
2019-04-11T12:11:08.017Z,34.19
2019-04-11T12:14:02.041Z,33.83
2019-04-11T12:17:03.831Z,34.56
2019-04-11T12:19:48.866Z,34.50
2019-04-11T12:22:10.646Z,35.70
2019-04-11T12:24:46.277Z,34.76
2019-04-11T12:27:45.780Z,35.40
2019-04-11T12:30:32.765Z,35.23
2019-04-11T12:33:23.276Z,35.38
2019-04-11T12:35:59.082Z,34.22
2019-04-11T12:38:42.575Z,35.18
2019-04-11T12:41:50.695Z,34.21
2019-04-11T12:44:51.752Z,33.25
2019-04-11T12:47:24.413Z,34.14
2019-04-11T12:50:08.338Z,33.59
2019-04-11T12:53:03.920Z,34.51
2019-04-11T12:55:52.155Z,34.72
2019-04-11T12:58:47.515Z,34.89
2019-04-11T13:01:35.967Z,33.41
2019-04-11T13:04:30.314Z,32.94
2019-04-11T13:07:12.520Z,33.92
2019-04-11T13:09:53.785Z,34.68
2019-04-11T13:12:54.835Z,35.89
2019-04-11T13:15:50.027Z,36.37
2019-04-11T13:18:51.298Z,34.38
2019-04-11T13:21:52.405Z,34.04
2019-04-11T13:24:50.402Z,34.40
2019-04-11T13:27:22.860Z,34.64
2019-04-11T13:30:12.324Z,34.52
2019-04-11T13:33:00.919Z,35.34
2019-04-11T13:36:05.507Z,36.35
2019-04-11T13:38:43.860Z,35.82
2019-04-11T13:41:32.716Z,34.49
2019-04-11T13:44:15.008Z,36.40
2019-04-11T13:47:03.236Z,35.09
2019-04-11T13:49:52.854Z,34.57
2019-04-11T13:52:42.052Z,34.80
2019-04-11T13:55:16.138Z,33.78
2019-04-11T13:58:08.450Z,34.56
2019-04-11T14:00:43.383Z,34.36
2019-04-11T14:03:32.997Z,34.26
2019-04-11T14:06:08.982Z,34.29
2019-04-11T14:08:56.930Z,33.72
2019-04-11T14:11:27.892Z,33.42
2019-04-11T14:14:10.321Z,34.29
2019-04-11T14:16:46.452Z,33.78
2019-04-11T14:19:34.419Z,33.11
2019-04-11T14:22:08.194Z,33.69
2019-04-11T14:25:05.316Z,34.62
2019-04-11T14:27:38.006Z,33.69
2019-04-11T14:30:26.114Z,33.87
2019-04-11T14:32:56.554Z,34.45
2019-04-11T14:35:48.070Z,35.08
2019-04-11T14:38:19.548Z,35.24
2019-04-11T14:41:07.200Z,34.08
2019-04-11T14:43:45.850Z,35.71
2019-04-11T14:46:36.691Z,35.38
2019-04-11T14:49:13.145Z,34.03
2019-04-11T14:52:02.408Z,34.29
2019-04-11T14:54:38.907Z,34.89
2019-04-11T14:57:28.429Z,33.79
2019-04-11T15:00:15.533Z,33.20
2019-04-11T15:03:16.665Z,32.59
2019-04-11T15:06:05.851Z,33.69
2019-04-11T15:08:47.443Z,33.99
2019-04-11T15:11:42.063Z,34.13
2019-04-11T15:14:38.841Z,33.52
2019-04-11T15:17:26.428Z,33.83
2019-04-11T15:20:03.230Z,32.95
2019-04-11T15:22:52.287Z,33.82
2019-04-11T15:25:45.744Z,34.42
2019-04-11T15:28:29.424Z,33.82
2019-04-11T15:31:04.419Z,34.80
2019-04-11T15:33:56.321Z,34.99
2019-04-11T15:36:27.875Z,34.80
2019-04-11T15:39:43.939Z,33.91
2019-04-11T15:42:09.275Z,34.94
2019-04-11T15:44:55.760Z,34.33
2019-04-11T15:47:25.900Z,33.83
2019-04-11T15:50:15.006Z,35.19
2019-04-11T15:52:51.410Z,33.99
2019-04-11T15:55:59.114Z,33.52
2019-04-11T15:58:37.175Z,35.48
2019-04-11T16:01:25.576Z,35.81
2019-04-11T16:04:01.415Z,34.25
2019-04-11T16:06:49.754Z,34.96
2019-04-11T16:09:21.090Z,34.83
2019-04-11T16:11:56.583Z,34.67
2019-04-11T16:14:31.508Z,34.38
2019-04-11T16:17:35.641Z,33.96
2019-04-11T16:20:21.481Z,33.93
2019-04-11T16:23:10.659Z,33.81
2019-04-11T16:25:51.119Z,34.40
2019-04-11T16:28:40.498Z,34.83
2019-04-11T16:31:13.959Z,34.78
2019-04-11T16:34:03.323Z,33.66
2019-04-11T16:37:08.542Z,33.80
2019-04-11T16:40:16.386Z,33.74
2019-04-11T16:42:53.615Z,34.44
2019-04-11T16:45:30.088Z,34.81
2019-04-11T16:48:02.184Z,34.62
2019-04-11T16:50:33.039Z,34.27
2019-04-11T16:53:03.797Z,34.19
2019-04-11T16:55:36.661Z,34.86
2019-04-11T16:58:06.860Z,34.48
2019-04-11T17:00:37.670Z,35.28
2019-04-11T17:03:07.961Z,34.65
2019-04-11T17:05:39.875Z,34.53
2019-04-11T17:08:28.360Z,34.55
2019-04-11T17:11:19.015Z,35.98
2019-04-11T17:13:49.397Z,35.30
2019-04-11T17:16:21.474Z,35.43
2019-04-11T17:18:51.745Z,35.94
2019-04-11T17:21:23.319Z,35.91
2019-04-11T17:23:53.642Z,35.36
2019-04-11T17:26:25.665Z,35.29
2019-04-11T17:28:56.286Z,35.31
2019-04-11T17:31:27.493Z,36.33
2019-04-11T17:34:01.462Z,37.00
2019-04-11T17:36:33.681Z,37.36
2019-04-11T17:39:07.020Z,37.35
2019-04-11T17:41:37.062Z,36.75
2019-04-11T17:44:07.351Z,36.60
2019-04-11T17:46:37.620Z,36.41
2019-04-11T17:49:08.197Z,36.25
2019-04-11T17:51:38.569Z,36.65
2019-04-11T17:54:08.920Z,37.64
2019-04-11T17:56:39.688Z,37.32
2019-04-11T17:59:12.095Z,37.16
2019-04-11T18:01:42.059Z,37.03
2019-04-11T18:04:13.600Z,37.55
2019-04-11T18:06:46.953Z,37.57
2019-04-11T18:09:16.400Z,37.89
2019-04-11T18:11:48.136Z,38.17
2019-04-11T18:14:20.071Z,38.49
2019-04-11T18:16:52.099Z,39.28
2019-04-11T18:19:22.535Z,40.21
2019-04-11T18:21:52.785Z,41.01
2019-04-11T18:24:25.594Z,40.66
2019-04-11T18:26:55.828Z,40.71
2019-04-11T18:29:26.929Z,40.97
2019-04-11T18:31:57.213Z,41.92
2019-04-11T18:34:31.568Z,41.95
2019-04-11T18:37:01.636Z,42.29
2019-04-11T18:39:33.662Z,42.65
2019-04-11T18:42:03.924Z,42.37
2019-04-11T18:44:34.268Z,42.17
2019-04-11T18:47:08.291Z,42.17
2019-04-11T18:49:39.591Z,42.21
2019-04-11T18:52:19.161Z,42.21
2019-04-11T18:54:43.955Z,42.21
2019-04-11T18:57:14.529Z,42.35
2019-04-11T18:59:44.902Z,42.17
2019-04-11T19:02:15.398Z,42.25
2019-04-11T19:04:45.682Z,42.51
2019-04-11T19:07:27.133Z,43.08
2019-04-11T19:09:48.117Z,43.19
2019-04-11T19:12:18.805Z,43.40
2019-04-11T19:14:49.145Z,43.84
2019-04-11T19:17:19.508Z,44.49
2019-04-11T19:19:49.892Z,44.83
2019-04-11T19:22:36.294Z,45.18
2019-04-11T19:24:53.282Z,45.07
2019-04-11T19:27:23.561Z,45.99
2019-04-11T19:29:56.062Z,46.47
2019-04-11T19:32:27.657Z,46.85
2019-04-11T19:34:58.680Z,46.65
2019-04-11T19:37:29.861Z,46.28
2019-04-11T19:40:00.183Z,46.54
2019-04-11T19:42:31.536Z,46.98
2019-04-11T19:45:03.851Z,47.15
2019-04-11T19:47:34.186Z,46.65
2019-04-11T19:50:05.318Z,46.95
2019-04-11T19:52:45.328Z,46.84
2019-04-11T19:55:25.767Z,47.14
2019-04-11T19:57:55.933Z,46.65
2019-04-11T20:00:26.303Z,46.87
2019-04-11T20:02:56.553Z,47.51
2019-04-11T20:05:27.096Z,48.69
2019-04-11T20:07:57.305Z,50.57
2019-04-11T20:10:30.549Z,51.97
2019-04-11T20:13:01.929Z,52.04
2019-04-11T20:15:36.898Z,50.90
2019-04-11T20:18:03.882Z,50.76
2019-04-11T20:20:36.851Z,49.91
2019-04-11T20:23:10.466Z,49.55
2019-04-11T20:25:38.928Z,49.28
2019-04-11T20:28:09.138Z,49.62
2019-04-11T20:30:39.438Z,49.82
2019-04-11T20:33:09.820Z,49.49
2019-04-11T20:35:40.668Z,49.88
2019-04-11T20:38:11.332Z,49.85
2019-04-11T20:40:43.110Z,49.98
2019-04-11T20:43:13.870Z,50.42
2019-04-11T20:45:44.611Z,50.60
2019-04-11T20:48:14.923Z,50.29
2019-04-11T20:50:46.519Z,50.50
2019-04-11T20:53:17.742Z,50.93
2019-04-11T20:55:48.024Z,50.94
2019-04-11T20:58:27.438Z,51.81
2019-04-11T21:00:56.477Z,51.37
2019-04-11T21:03:29.927Z,51.89
2019-04-11T21:06:01.559Z,52.64
2019-04-11T21:08:33.132Z,53.47
2019-04-11T21:11:04.668Z,54.02
2019-04-11T21:13:38.078Z,53.95
2019-04-11T21:16:08.166Z,54.81
2019-04-11T21:18:38.578Z,54.81
2019-04-11T21:21:10.214Z,55.22
2019-04-11T21:23:40.623Z,55.11
2019-04-11T21:26:11.693Z,55.09
2019-04-11T21:28:41.956Z,55.14
2019-04-11T21:31:12.538Z,55.19
2019-04-11T21:33:42.825Z,55.17
2019-04-11T21:36:13.373Z,55.38
2019-04-11T21:38:43.504Z,55.55
2019-04-11T21:41:13.753Z,55.87
2019-04-11T21:43:43.843Z,55.57
2019-04-11T21:46:14.123Z,55.78
2019-04-11T21:48:44.729Z,56.08
2019-04-11T21:51:15.023Z,55.55
2019-04-11T21:53:45.522Z,55.31
2019-04-11T21:56:18.639Z,55.46
2019-04-11T21:58:50.163Z,55.13
2019-04-11T22:01:21.953Z,54.56
2019-04-11T22:03:57.035Z,54.74
2019-04-11T22:06:28.068Z,54.24
2019-04-11T22:08:58.068Z,54.67
2019-04-11T22:11:28.722Z,54.68
2019-04-11T22:13:59.050Z,54.41
2019-04-11T22:16:29.325Z,54.69
2019-04-11T22:18:59.869Z,54.28
2019-04-11T22:21:30.526Z,54.93
2019-04-11T22:24:01.171Z,55.22
2019-04-11T22:26:31.662Z,54.75
2019-04-11T22:29:01.913Z,54.86
2019-04-11T22:31:32.913Z,54.55
2019-04-11T22:34:21.522Z,54.83
2019-04-11T22:36:52.103Z,55.30
2019-04-11T22:39:22.978Z,54.87
2019-04-11T22:41:53.291Z,55.12
2019-04-11T22:44:23.682Z,54.75
2019-04-11T22:46:54.456Z,55.02
2019-04-11T22:49:25.077Z,55.17
2019-04-11T22:51:55.301Z,55.17
2019-04-11T22:54:25.634Z,55.81
2019-04-11T22:56:55.889Z,55.74
2019-04-11T22:59:26.357Z,56.18
2019-04-11T23:02:01.702Z,56.21
2019-04-11T23:04:32.687Z,56.67
2019-04-11T23:07:03.181Z,56.69
2019-04-11T23:09:33.618Z,56.70
2019-04-11T23:12:03.785Z,56.93
2019-04-11T23:14:34.463Z,57.09
2019-04-11T23:17:04.919Z,56.53
2019-04-11T23:19:35.193Z,56.11
2019-04-11T23:22:05.443Z,56.40
2019-04-11T23:24:35.730Z,56.78
2019-04-11T23:27:05.981Z,56.75
2019-04-11T23:29:36.216Z,56.94
2019-04-11T23:32:06.558Z,57.07
2019-04-11T23:34:37.181Z,57.75
2019-04-11T23:37:07.765Z,57.53
2019-04-11T23:39:38.061Z,57.59
2019-04-11T23:42:08.200Z,58.29
2019-04-11T23:44:38.570Z,58.55
2019-04-11T23:47:09.878Z,58.39
2019-04-11T23:49:40.337Z,58.41
2019-04-11T23:52:10.609Z,58.40
2019-04-11T23:54:40.851Z,58.54
2019-04-11T23:57:11.465Z,58.78
2019-04-11T23:59:41.647Z,58.45
